Time,TemperatureF,DewpointF,PressureIn,WindDirection,WindDirectionDegrees,WindSpeedMPH,WindSpeedGustMPH,Humidity,HourlyPrecipIn,Conditions,Clouds,dailyrainin,SolarRadiationWatts/m^2,SoftwareType,DateUTC
2013-06-04 00:00:00,70.3,69.1,29.90,East,83,0.0,0.0,96,0.00,,OVC018,0.00,0.00,VWS V14.00,2013-06-04 04:00:00,
2013-06-04 01:00:00,70.8,69.6,29.90,NNW,340,0.0,0.0,96,0.01,,OVC018,0.01,0.00,VWS V14.00,2013-06-04 05:00:00,
2013-06-04 02:00:00,68.6,67.4,29.89,SSE,166,0.0,0.0,96,0.01,,OVC018,0.01,0.00,VWS V14.00,2013-06-04 06:00:00,
2013-06-04 03:00:00,68.1,66.9,29.90,North,359,0.0,0.0,96,0.01,,OVC018,0.02,0.00,VWS V14.00,2013-06-04 07:00:00,
2013-06-04 04:00:00,67.6,66.7,29.90,SW,229,0.0,0.0,97,0.01,,OVC018,0.02,0.00,VWS V14.00,2013-06-04 08:00:00,
2013-06-04 05:00:00,68.2,67.3,29.91,SW,229,0.0,0.0,97,0.00,,OVC018,0.02,0.00,VWS V14.00,2013-06-04 09:00:00,
2013-06-04 06:00:00,68.4,67.5,29.92,SE,141,0.0,0.0,97,0.00,,OVC018,0.02,25.00,VWS V14.00,2013-06-04 10:00:00,
2013-06-04 07:00:00,70.7,69.8,29.93,NNW,342,0.0,0.0,97,0.00,,OVC018,0.02,81.00,VWS V14.00,2013-06-04 11:00:00,
2013-06-04 08:00:00,73.5,71.0,29.95,North,357,0.0,0.0,92,0.00,,OVC018,0.02,174.00,VWS V14.00,2013-06-04 12:00:00,
2013-06-04 09:00:00,76.6,73.1,29.95,ENE,58,0.0,0.0,89,0.01,,OVC018,0.03,540.00,VWS V14.00,2013-06-04 13:00:00,
2013-06-04 10:00:00,81.5,73.2,29.94,WSW,256,0.0,1.0,76,0.02,,OVC018,0.04,782.00,VWS V14.00,2013-06-04 14:00:00,
2013-06-04 11:00:00,81.5,72.4,29.96,NE,53,0.0,4.0,74,0.01,,OVC018,0.04,429.00,VWS V14.00,2013-06-04 15:00:00,
2013-06-04 12:00:00,83.8,72.1,29.94,WNW,301,0.0,0.0,68,0.00,,OVC018,0.04,315.00,VWS V14.00,2013-06-04 16:00:00,
2013-06-04 13:00:00,85.6,73.8,29.92,North,4,0.0,3.0,68,0.01,,OVC018,0.05,652.00,VWS V14.00,2013-06-04 17:00:00,
2013-06-04 14:00:00,85.8,71.3,29.91,North,357,0.0,1.0,62,0.01,,OVC018,0.05,313.00,VWS V14.00,2013-06-04 18:00:00,
2013-06-04 15:00:00,86.4,70.4,29.91,North,359,5.0,9.0,59,0.00,,OVC018,0.05,253.00,VWS V14.00,2013-06-04 19:00:00,
2013-06-04 16:00:00,87.6,72.0,29.89,North,3,0.0,4.0,60,0.00,,OVC018,0.05,638.00,VWS V14.00,2013-06-04 20:00:00,
2013-06-04 17:00:00,87.3,72.2,29.89,NNE,30,0.0,1.0,61,0.00,,OVC018,0.05,367.00,VWS V14.00,2013-06-04 21:00:00,
2013-06-04 18:00:00,86.5,71.5,29.90,East,96,0.0,5.0,61,0.00,,OVC018,0.05,274.00,VWS V14.00,2013-06-04 22:00:00,
2013-06-04 19:00:00,82.7,72.3,29.93,ESE,110,0.0,0.0,71,0.00,,OVC018,0.05,42.00,VWS V14.00,2013-06-04 23:00:00,
2013-06-04 20:00:00,79.1,71.3,29.95,SE,132,1.0,5.0,77,0.00,,OVC018,0.05,0.00,VWS V14.00,2013-06-05 00:00:00,
2013-06-04 21:00:00,76.5,69.9,29.96,SE,143,3.0,9.0,80,0.00,,OVC018,0.05,0.00,VWS V14.00,2013-06-05 01:00:00,
2013-06-04 22:00:00,73.9,69.8,29.95,SSE,154,0.0,0.0,87,0.00,,OVC018,0.05,0.00,VWS V14.00,2013-06-05 02:00:00,
2013-06-04 23:00:00,71.5,69.1,29.97,SSE,154,0.0,1.0,92,0.00,,OVC018,0.05,0.00,VWS V14.00,2013-06-05 03:00:00,